Flugplatz Stade

METAR ETMN TAF EDDW
0 °C
°C
-
°C
16m
Leeftijd
11:35:50
LT
10:35
UTC
0 ft

2.000

4.000

6.000

8.000

10.000

BKN 9.000
VFR
<?= Yii::t('app', 'Wind direction') ?> <?= Yii::t('app', 'of'); ?>
220°
16:58
Zonsondergang
87%
Luchtvochtigheid
Windschering
Gesloten/sneeuw
Baanzicht
Baanconditie
Verticaal zicht
Min. zicht
CAVOK
Trend
Correctie
Speciaal rapport
1029 hPa
QNH
METAR ETMN 281020Z 22007KT 9999 BKN090 00/M02 Q1029 BLU
Zwaar bewolkt
7 kt
7 kt
11:00
VFR
6 kt
12:00
VFR
6 kt
13:00
VFR
6 kt
14:00
VFR
6 kt
15:00
VFR
6 kt
16:00
VFR
6 kt
17:00
VFR
6 kt
10 km+
Zicht
9.000 ft
Plafond
7 kt
Wind
metar-taf.com/EDHS

Metar-Taf.com

Visuele decoder

Wij en derden volgen je internetgedrag op onze website met cookies. Als je doorgaat, gaan we ervan uit dat je akkoord gaat met onze cookiebeleid.